Time,TemperatureF,DewpointF,PressureIn,WindDirection,WindDirectionDegrees,WindSpeedMPH,WindSpeedGustMPH,Humidity,HourlyPrecipIn,Conditions,Clouds,dailyrainin,SoftwareType,DateUTC
2013-05-28 00:01:00,78.0,45.0,29.69,WSW,248,1.0,2.0,31,0.00,,,0.00,,2013-05-28 07:01:00,
2013-05-28 00:11:00,78.0,45.0,29.68,WSW,248,1.0,2.0,31,0.00,,,0.00,,2013-05-28 07:11:00,
2013-05-28 00:21:00,78.0,45.0,29.68,WSW,248,1.0,2.0,31,0.00,,,0.00,,2013-05-28 07:21:00,
2013-05-28 00:31:00,78.0,45.0,29.68,WSW,248,1.0,1.0,31,0.00,,,0.00,,2013-05-28 07:31:00,
2013-05-28 00:41:00,78.0,45.0,29.68,WSW,248,1.0,1.0,31,0.00,,,0.00,,2013-05-28 07:41:00,
2013-05-28 00:52:00,77.0,46.0,29.67,WSW,248,0.0,0.0,33,0.00,,,0.00,,2013-05-28 07:52:00,
2013-05-28 01:01:00,77.0,46.0,29.68,WSW,248,0.0,0.0,34,0.00,,,0.00,,2013-05-28 08:01:00,
2013-05-28 01:11:00,76.0,46.0,29.67,WSW,248,1.0,2.0,34,0.00,,,0.00,,2013-05-28 08:11:00,
2013-05-28 01:21:00,76.0,46.0,29.67,WSW,248,1.0,2.0,34,0.00,,,0.00,,2013-05-28 08:21:00,
2013-05-28 01:32:00,75.0,46.0,29.67,WSW,248,0.0,0.0,36,0.00,,,0.00,,2013-05-28 08:32:00,
2013-05-28 01:41:00,75.0,46.0,29.67,WSW,248,0.0,0.0,36,0.00,,,0.00,,2013-05-28 08:41:00,
2013-05-28 01:51:00,75.0,45.0,29.66,WSW,248,0.0,1.0,35,0.00,,,0.00,,2013-05-28 08:51:00,
2013-05-28 02:01:00,74.0,44.0,29.67,WSW,248,0.0,0.0,34,0.00,,,0.00,,2013-05-28 09:01:00,
2013-05-28 02:11:00,74.0,46.0,29.66,WSW,248,0.0,1.0,37,0.00,,,0.00,,2013-05-28 09:11:00,
2013-05-28 02:21:00,74.0,46.0,29.66,WSW,248,0.0,1.0,37,0.00,,,0.00,,2013-05-28 09:21:00,
2013-05-28 02:33:00,73.0,44.0,29.66,WSW,248,2.0,3.0,35,0.00,,,0.00,,2013-05-28 09:33:00,
2013-05-28 02:42:00,73.0,44.0,29.66,WSW,248,2.0,3.0,35,0.00,,,0.00,,2013-05-28 09:42:00,
2013-05-28 02:53:00,73.0,46.0,29.65,WSW,248,1.0,1.0,38,0.00,,,0.00,,2013-05-28 09:53:00,
2013-05-28 03:02:00,73.0,46.0,29.65,WSW,248,2.0,2.0,38,0.00,,,0.00,,2013-05-28 10:02:00,
2013-05-28 03:12:00,73.0,46.0,29.65,WSW,248,2.0,2.0,38,0.00,,,0.00,,2013-05-28 10:12:00,
2013-05-28 03:22:00,72.0,45.0,29.65,WSW,248,0.0,1.0,38,0.00,,,0.00,,2013-05-28 10:22:00,
2013-05-28 03:32:00,72.0,46.0,29.65,WSW,248,0.0,1.0,40,0.00,,,0.00,,2013-05-28 10:32:00,
2013-05-28 03:42:00,72.0,46.0,29.65,WSW,248,0.0,1.0,40,0.00,,,0.00,,2013-05-28 10:42:00,
2013-05-28 03:52:00,72.0,46.0,29.65,WSW,248,0.0,0.0,40,0.00,,,0.00,,2013-05-28 10:52:00,
2013-05-28 04:02:00,72.0,46.0,29.65,WSW,248,0.0,0.0,40,0.00,,,0.00,,2013-05-28 11:02:00,
2013-05-28 04:11:00,72.0,46.0,29.65,WSW,248,0.0,0.0,40,0.00,,,0.00,,2013-05-28 11:11:00,
2013-05-28 04:22:00,72.0,46.0,29.65,WSW,248,0.0,0.0,40,0.00,,,0.00,,2013-05-28 11:22:00,
2013-05-28 04:31:00,71.0,45.0,29.64,WSW,248,0.0,0.0,40,0.00,,,0.00,,2013-05-28 11:31:00,
2013-05-28 04:41:00,71.0,45.0,29.64,WSW,248,0.0,0.0,40,0.00,,,0.00,,2013-05-28 11:41:00,
2013-05-28 04:52:00,71.0,45.0,29.65,WSW,248,0.0,0.0,40,0.00,,,0.00,,2013-05-28 11:52:00,
2013-05-28 05:01:00,71.0,45.0,29.65,WSW,248,0.0,0.0,40,0.00,,,0.00,,2013-05-28 12:01:00,
2013-05-28 05:11:00,71.0,45.0,29.65,WSW,248,0.0,0.0,40,0.00,,,0.00,,2013-05-28 12:11:00,
2013-05-28 05:21:00,71.0,45.0,29.65,WSW,248,0.0,0.0,40,0.00,,,0.00,,2013-05-28 12:21:00,
2013-05-28 05:31:00,70.0,45.0,29.65,WSW,248,0.0,0.0,41,0.00,,,0.00,,2013-05-28 12:31:00,
2013-05-28 05:42:00,70.0,45.0,29.65,WSW,248,0.0,0.0,41,0.00,,,0.00,,2013-05-28 12:42:00,
2013-05-28 05:52:00,70.0,46.0,29.66,WSW,248,0.0,0.0,42,0.00,,,0.00,,2013-05-28 12:52:00,
2013-05-28 06:01:00,70.0,46.0,29.65,WSW,248,0.0,0.0,42,0.00,,,0.00,,2013-05-28 13:01:00,
2013-05-28 06:11:00,69.0,46.0,29.65,WSW,248,0.0,0.0,44,0.00,,,0.00,,2013-05-28 13:11:00,
2013-05-28 06:21:00,69.0,46.0,29.65,WSW,248,0.0,0.0,44,0.00,,,0.00,,2013-05-28 13:21:00,
2013-05-28 06:32:00,69.0,46.0,29.65,WSW,248,0.0,0.0,44,0.00,,,0.00,,2013-05-28 13:32:00,
2013-05-28 06:42:00,69.0,46.0,29.65,WSW,248,0.0,0.0,44,0.00,,,0.00,,2013-05-28 13:42:00,
2013-05-28 06:52:00,69.0,46.0,29.65,SW,225,1.0,1.0,44,0.00,,,0.00,,2013-05-28 13:52:00,
2013-05-28 07:01:00,70.0,46.0,29.66,SW,225,0.0,1.0,42,0.00,,,0.00,,2013-05-28 14:01:00,
2013-05-28 07:11:00,71.0,46.0,29.66,SW,225,1.0,2.0,41,0.00,,,0.00,,2013-05-28 14:11:00,
2013-05-28 07:21:00,71.0,46.0,29.66,SW,225,1.0,2.0,41,0.00,,,0.00,,2013-05-28 14:21:00,
2013-05-28 07:32:00,72.0,46.0,29.65,SW,225,2.0,3.0,39,0.00,,,0.00,,2013-05-28 14:32:00,
2013-05-28 07:41:00,72.0,46.0,29.65,SW,225,2.0,3.0,39,0.00,,,0.00,,2013-05-28 14:41:00,
2013-05-28 07:51:00,73.0,46.0,29.66,SW,225,1.0,2.0,38,0.00,,,0.00,,2013-05-28 14:51:00,
2013-05-28 08:01:00,73.0,46.0,29.66,SW,225,1.0,2.0,38,0.00,,,0.00,,2013-05-28 15:01:00,
2013-05-28 08:11:00,75.0,45.0,29.66,SSW,203,1.0,3.0,35,0.00,,,0.00,,2013-05-28 15:11:00,
2013-05-28 08:21:00,75.0,45.0,29.66,SSW,203,1.0,3.0,35,0.00,,,0.00,,2013-05-28 15:21:00,
2013-05-28 08:32:00,76.0,46.0,29.67,SSW,203,2.0,3.0,34,0.00,,,0.00,,2013-05-28 15:32:00,
2013-05-28 08:43:00,76.0,46.0,29.67,SSW,203,2.0,3.0,34,0.00,,,0.00,,2013-05-28 15:43:00,
2013-05-28 08:53:00,77.0,46.0,29.66,SSW,203,2.0,3.0,34,0.00,,,0.00,,2013-05-28 15:53:00,
2013-05-28 09:02:00,78.0,47.0,29.66,SW,225,2.0,5.0,33,0.00,,,0.00,,2013-05-28 16:02:00,
2013-05-28 09:12:00,79.0,47.0,29.66,SW,225,5.0,5.0,33,0.00,,,0.00,,2013-05-28 16:12:00,
2013-05-28 09:22:00,79.0,47.0,29.66,SW,225,5.0,5.0,33,0.00,,,0.00,,2013-05-28 16:22:00,
2013-05-28 09:32:00,79.0,47.0,29.66,SSW,203,3.0,5.0,33,0.00,,,0.00,,2013-05-28 16:32:00,
2013-05-28 09:42:00,79.0,47.0,29.66,SSW,203,3.0,5.0,33,0.00,,,0.00,,2013-05-28 16:42:00,
2013-05-28 09:52:00,81.0,47.0,29.66,WSW,248,3.0,6.0,31,0.00,,,0.00,,2013-05-28 16:52:00,
2013-05-28 10:02:00,82.0,48.0,29.67,WSW,248,2.0,3.0,31,0.00,,,0.00,,2013-05-28 17:02:00,
2013-05-28 10:11:00,82.0,48.0,29.67,WSW,248,2.0,3.0,31,0.00,,,0.00,,2013-05-28 17:11:00,
2013-05-28 10:22:00,82.0,48.0,29.67,WSW,248,2.0,3.0,31,0.00,,,0.00,,2013-05-28 17:22:00,
2013-05-28 10:31:00,84.0,47.0,29.66,WSW,248,1.0,2.0,28,0.00,,,0.00,,2013-05-28 17:31:00,
2013-05-28 10:41:00,84.0,46.0,29.66,West,270,2.0,5.0,27,0.00,,,0.00,,2013-05-28 17:41:00,
2013-05-28 10:51:00,84.0,46.0,29.66,West,270,2.0,5.0,27,0.00,,,0.00,,2013-05-28 17:51:00,
2013-05-28 11:01:00,85.0,48.0,29.66,West,270,2.0,5.0,28,0.00,,,0.00,,2013-05-28 18:01:00,
2013-05-28 11:11:00,85.0,48.0,29.66,West,270,2.0,5.0,28,0.00,,,0.00,,2013-05-28 18:11:00,
2013-05-28 11:21:00,86.0,48.0,29.67,SW,225,6.0,9.0,27,0.00,,,0.00,,2013-05-28 18:21:00,
2013-05-28 11:32:00,87.0,51.0,29.66,SW,225,1.0,3.0,29,0.00,,,0.00,,2013-05-28 18:32:00,
2013-05-28 11:42:00,88.0,50.0,29.65,SW,225,2.0,3.0,27,0.00,,,0.00,,2013-05-28 18:42:00,
2013-05-28 11:52:00,88.0,50.0,29.65,SW,225,2.0,3.0,27,0.00,,,0.00,,2013-05-28 18:52:00,
2013-05-28 12:01:00,89.0,51.0,29.65,West,270,3.0,6.0,27,0.00,,,0.00,,2013-05-28 19:01:00,
2013-05-28 12:21:00,89.0,50.0,29.65,SSW,203,6.0,8.0,26,0.00,,,0.00,,2013-05-28 19:21:00,
2013-05-28 12:31:00,89.0,51.0,29.64,SW,225,3.0,6.0,27,0.00,,,0.00,,2013-05-28 19:31:00,
2013-05-28 12:52:00,90.0,51.0,29.64,WNW,293,2.0,6.0,27,0.00,,,0.00,,2013-05-28 19:52:00,
2013-05-28 13:01:00,90.0,49.0,29.64,WSW,248,5.0,7.0,25,0.00,,,0.00,,2013-05-28 20:01:00,
2013-05-28 13:11:00,91.0,49.0,29.63,West,270,2.0,3.0,24,0.00,,,0.00,,2013-05-28 20:11:00,
2013-05-28 13:22:00,91.0,49.0,29.63,West,270,2.0,3.0,24,0.00,,,0.00,,2013-05-28 20:22:00,
2013-05-28 13:32:00,92.0,51.0,29.63,WSW,248,5.0,9.0,25,0.00,,,0.00,,2013-05-28 20:32:00,
2013-05-28 13:52:00,92.0,50.0,29.62,SSW,203,5.0,7.0,24,0.00,,,0.00,,2013-05-28 20:52:00,
2013-05-28 14:01:00,92.0,51.0,29.61,SSW,203,3.0,3.0,25,0.00,,,0.00,,2013-05-28 21:01:00,
2013-05-28 14:11:00,93.0,51.0,29.61,SW,225,3.0,6.0,24,0.00,,,0.00,,2013-05-28 21:11:00,
2013-05-28 14:21:00,93.0,51.0,29.61,SW,225,3.0,6.0,24,0.00,,,0.00,,2013-05-28 21:21:00,
2013-05-28 14:32:00,93.0,51.0,29.59,WSW,248,2.0,3.0,24,0.00,,,0.00,,2013-05-28 21:32:00,
2013-05-28 14:43:00,92.0,51.0,29.59,WSW,248,3.0,6.0,25,0.00,,,0.00,,2013-05-28 21:43:00,
2013-05-28 15:02:00,92.0,50.0,29.59,SSW,203,3.0,7.0,24,0.00,,,0.00,,2013-05-28 22:02:00,
2013-05-28 15:12:00,93.0,51.0,29.58,West,270,2.0,6.0,24,0.00,,,0.00,,2013-05-28 22:12:00,
2013-05-28 15:32:00,93.0,51.0,29.57,SSW,203,2.0,3.0,24,0.00,,,0.00,,2013-05-28 22:32:00,
2013-05-28 15:42:00,94.0,52.0,29.56,SSW,203,2.0,3.0,24,0.00,,,0.00,,2013-05-28 22:42:00,
2013-05-28 16:02:00,94.0,53.0,29.56,WSW,248,1.0,2.0,25,0.00,,,0.00,,2013-05-28 23:02:00,
2013-05-28 16:11:00,94.0,51.0,29.56,SSW,203,3.0,6.0,23,0.00,,,0.00,,2013-05-28 23:11:00,
2013-05-28 16:32:00,94.0,51.0,29.54,South,180,6.0,8.0,23,0.00,,,0.00,,2013-05-28 23:32:00,
2013-05-28 16:52:00,95.0,50.0,29.54,SSW,203,3.0,5.0,22,0.00,,,0.00,,2013-05-28 23:52:00,
2013-05-28 17:01:00,95.0,51.0,29.54,SW,225,2.0,3.0,23,0.00,,,0.00,,2013-05-29 00:01:00,
2013-05-28 17:21:00,95.0,51.0,29.53,WSW,248,3.0,8.0,23,0.00,,,0.00,,2013-05-29 00:21:00,
2013-05-28 17:32:00,95.0,52.0,29.53,WSW,248,5.0,8.0,24,0.00,,,0.00,,2013-05-29 00:32:00,
2013-05-28 17:51:00,95.0,50.0,29.52,SSW,203,2.0,5.0,22,0.00,,,0.00,,2013-05-29 00:51:00,
2013-05-28 18:01:00,95.0,50.0,29.52,SW,225,2.0,3.0,22,0.00,,,0.00,,2013-05-29 01:01:00,
2013-05-28 18:11:00,94.0,51.0,29.52,WNW,293,5.0,7.0,23,0.00,,,0.00,,2013-05-29 01:11:00,
2013-05-28 18:21:00,94.0,51.0,29.52,WNW,293,5.0,7.0,23,0.00,,,0.00,,2013-05-29 01:21:00,
2013-05-28 18:31:00,94.0,51.0,29.52,WSW,248,3.0,5.0,23,0.00,,,0.00,,2013-05-29 01:31:00,
2013-05-28 19:02:00,92.0,50.0,29.52,WSW,248,2.0,3.0,24,0.00,,,0.00,,2013-05-29 02:02:00,
2013-05-28 19:11:00,92.0,50.0,29.53,SW,225,2.0,3.0,24,0.00,,,0.00,,2013-05-29 02:11:00,
2013-05-28 19:31:00,91.0,51.0,29.54,West,270,2.0,3.0,26,0.00,,,0.00,,2013-05-29 02:31:00,
2013-05-28 19:41:00,90.0,51.0,29.54,SSW,203,3.0,6.0,27,0.00,,,0.00,,2013-05-29 02:41:00,
2013-05-28 19:51:00,90.0,51.0,29.54,SSW,203,3.0,6.0,27,0.00,,,0.00,,2013-05-29 02:51:00,
2013-05-28 20:01:00,89.0,51.0,29.55,SW,225,2.0,3.0,27,0.00,,,0.00,,2013-05-29 03:01:00,
2013-05-28 20:11:00,89.0,51.0,29.55,SW,225,2.0,3.0,27,0.00,,,0.00,,2013-05-29 03:11:00,
2013-05-28 20:21:00,88.0,50.0,29.56,SW,225,3.0,7.0,27,0.00,,,0.00,,2013-05-29 03:21:00,
2013-05-28 20:32:00,88.0,51.0,29.55,SSW,203,2.0,3.0,28,0.00,,,0.00,,2013-05-29 03:32:00,
2013-05-28 20:43:00,88.0,51.0,29.55,SSW,203,2.0,3.0,28,0.00,,,0.00,,2013-05-29 03:43:00,
2013-05-28 20:53:00,87.0,50.0,29.56,SW,225,5.0,8.0,28,0.00,,,0.00,,2013-05-29 03:53:00,
2013-05-28 21:02:00,86.0,51.0,29.56,SW,225,3.0,5.0,30,0.00,,,0.00,,2013-05-29 04:02:00,
2013-05-28 21:12:00,85.0,51.0,29.57,SW,225,2.0,3.0,31,0.00,,,0.00,,2013-05-29 04:12:00,
2013-05-28 21:22:00,85.0,51.0,29.57,SW,225,2.0,3.0,31,0.00,,,0.00,,2013-05-29 04:22:00,
2013-05-28 21:32:00,83.0,50.0,29.57,WSW,248,5.0,7.0,32,0.00,,,0.00,,2013-05-29 04:32:00,
2013-05-28 21:42:00,83.0,50.0,29.57,WSW,248,5.0,7.0,32,0.00,,,0.00,,2013-05-29 04:42:00,
2013-05-28 21:52:00,83.0,51.0,29.58,SW,225,3.0,6.0,33,0.00,,,0.00,,2013-05-29 04:52:00,
2013-05-28 22:02:00,83.0,50.0,29.59,SSW,203,5.0,5.0,32,0.00,,,0.00,,2013-05-29 05:02:00,
2013-05-28 22:11:00,83.0,50.0,29.59,SSW,203,5.0,5.0,32,0.00,,,0.00,,2013-05-29 05:11:00,
2013-05-28 22:21:00,82.0,50.0,29.59,SW,225,2.0,5.0,33,0.00,,,0.00,,2013-05-29 05:21:00,
2013-05-28 22:32:00,81.0,49.0,29.60,SSW,203,2.0,3.0,33,0.00,,,0.00,,2013-05-29 05:32:00,
2013-05-28 22:41:00,81.0,49.0,29.60,SSW,203,2.0,3.0,33,0.00,,,0.00,,2013-05-29 05:41:00,
2013-05-28 22:52:00,81.0,49.0,29.61,SSW,203,2.0,3.0,33,0.00,,,0.00,,2013-05-29 05:52:00,
2013-05-28 23:01:00,81.0,50.0,29.60,SSW,203,3.0,6.0,34,0.00,,,0.00,,2013-05-29 06:01:00,
2013-05-28 23:11:00,81.0,50.0,29.60,SSW,203,3.0,6.0,34,0.00,,,0.00,,2013-05-29 06:11:00,
2013-05-28 23:21:00,80.0,50.0,29.60,SW,225,2.0,3.0,35,0.00,,,0.00,,2013-05-29 06:21:00,
2013-05-28 23:31:00,79.0,50.0,29.61,SSW,203,2.0,3.0,36,0.00,,,0.00,,2013-05-29 06:31:00,
2013-05-28 23:41:00,79.0,50.0,29.61,SSW,203,2.0,3.0,36,0.00,,,0.00,,2013-05-29 06:41:00,
2013-05-28 23:51:00,79.0,50.0,29.61,SSW,203,2.0,3.0,36,0.00,,,0.00,,2013-05-29 06:51:00,